Time;durP1;ratioP1;P1;durP2;ratioP2;P2;SDS_P1;SDS_P2;PMS_P1;PMS_P2;Temp;Humidity;BMP_temperature;BMP_pressure;BME280_temperature;BME280_humidity;BME280_pressure;Samples;Min_cycle;Max_cycle;Signal;HPM_P1;HPM_P2
2023/03/05 00:02:04;;;;;;;;;;;;;;;12.69;52.45;100965.00;4788824;30;19922;-47
2023/03/05 00:04:30;;;;;;;;;;;;;;;12.72;52.52;100971.81;4786097;29;20571;-56
2023/03/05 00:06:56;;;;;;;;;;;;;;;12.57;52.00;100966.75;4788015;30;19922;-50
2023/03/05 00:09:21;;;;;;;;;;;;;;;12.38;53.30;100962.31;4779227;29;19952;-49
2023/03/05 00:11:47;;;;;;;;;;;;;;;12.41;53.29;100957.34;4774493;30;19917;-48
2023/03/05 00:14:13;;;;;;;;;;;;;;;12.28;53.00;100953.91;4770073;30;19925;-49
2023/03/05 00:16:39;;;;;;;;;;;;;;;12.21;52.76;100956.59;4783503;30;19965;-48
2023/03/05 00:19:05;;;;;;;;;;;;;;;12.15;52.80;100965.50;4788555;30;19953;-49
2023/03/05 00:21:36;;;;;;;;;;;;;;;11.96;53.06;100961.88;4774251;29;19987;-47
2023/03/05 00:24:04;;;;;;;;;;;;;;;11.92;53.93;100959.84;4770583;30;19943;-50
2023/03/05 00:26:30;;;;;;;;;;;;;;;11.69;55.13;100965.66;4785534;30;19922;-48
2023/03/05 00:28:56;;;;;;;;;;;;;;;11.82;54.89;100957.59;4788635;30;19917;-50
2023/03/05 00:31:25;;;;;;;;;;;;;;;11.83;55.83;100960.06;4787195;30;19929;-49
2023/03/05 00:33:52;;;;;;;;;;;;;;;11.67;54.70;100952.47;4788093;29;19928;-49
2023/03/05 00:36:17;;;;;;;;;;;;;;;11.80;55.00;100959.63;4786951;30;19922;-48
2023/03/05 00:38:43;;;;;;;;;;;;;;;11.80;54.41;100955.09;4788275;30;19917;-47
2023/03/05 00:41:09;;;;;;;;;;;;;;;11.62;54.42;100955.78;4786126;30;19921;-48
2023/03/05 00:43:35;;;;;;;;;;;;;;;11.67;54.72;100949.78;4787440;29;19957;-48
2023/03/05 00:46:02;;;;;;;;;;;;;;;11.68;54.92;100978.22;4787931;30;20392;-49
2023/03/05 00:48:28;;;;;;;;;;;;;;;11.09;56.00;100976.44;4788044;30;19925;-47
2023/03/05 00:50:53;;;;;;;;;;;;;;;10.92;56.94;100978.69;4787669;30;19917;-46
2023/03/05 00:53:19;;;;;;;;;;;;;;;10.88;58.09;100980.13;4793081;24;19920;-50
2023/03/05 00:55:45;;;;;;;;;;;;;;;10.71;58.06;100970.81;4779390;29;20344;-51
2023/03/05 00:58:11;;;;;;;;;;;;;;;10.58;58.85;100971.63;4777668;30;19970;-50
2023/03/05 01:00:37;;;;;;;;;;;;;;;10.57;58.35;100976.16;4781453;30;19918;-48
2023/03/05 01:03:03;;;;;;;;;;;;;;;10.27;60.34;100972.16;4769600;30;20437;-47
2023/03/05 01:05:29;;;;;;;;;;;;;;;10.43;59.78;100982.50;4769434;30;19945;-48
2023/03/05 01:07:55;;;;;;;;;;;;;;;10.60;59.85;100974.94;4769690;30;20339;-50
2023/03/05 01:10:25;;;;;;;;;;;;;;;10.74;58.93;100973.13;4769098;30;20648;-50
2023/03/05 01:12:51;;;;;;;;;;;;;;;10.88;58.95;100971.25;4769611;30;20385;-51
2023/03/05 01:15:17;;;;;;;;;;;;;;;11.02;58.14;100978.28;4774655;30;20285;-48
2023/03/05 01:17:43;;;;;;;;;;;;;;;11.00;57.99;100977.69;4787185;29;19921;-51
2023/03/05 01:20:11;;;;;;;;;;;;;;;10.98;57.80;100977.88;4770709;30;19943;-48
2023/03/05 01:22:37;;;;;;;;;;;;;;;11.13;58.02;100975.00;4787380;30;20039;-51
2023/03/05 01:25:03;;;;;;;;;;;;;;;11.15;56.95;100975.59;4787129;30;20048;-51
2023/03/05 01:27:29;;;;;;;;;;;;;;;11.11;55.90;100979.75;4787183;30;19918;-51
2023/03/05 01:29:55;;;;;;;;;;;;;;;11.15;55.86;100988.19;4787102;30;19917;-48
2023/03/05 01:32:20;;;;;;;;;;;;;;;11.24;55.24;100993.13;4786910;30;19929;-50
2023/03/05 01:34:46;;;;;;;;;;;;;;;11.23;54.42;100991.50;4787026;30;19921;-51
2023/03/05 01:37:12;;;;;;;;;;;;;;;11.28;54.99;100980.97;4787235;30;19947;-50
2023/03/05 01:39:38;;;;;;;;;;;;;;;11.32;54.41;100978.69;4777111;30;20309;-48
2023/03/05 01:42:04;;;;;;;;;;;;;;;11.28;54.84;100983.66;4750620;30;19968;-51
2023/03/05 01:44:31;;;;;;;;;;;;;;;11.09;55.43;100987.16;4755930;30;19929;-50
2023/03/05 01:46:57;;;;;;;;;;;;;;;11.02;55.81;100984.47;4758864;30;19929;-48
2023/03/05 01:49:31;;;;;;;;;;;;;;;10.87;56.57;100986.50;4751206;30;19922;-49
2023/03/05 01:52:07;;;;;;;;;;;;;;;10.85;56.77;100991.25;4751112;30;19918;-50
2023/03/05 01:54:35;;;;;;;;;;;;;;;11.04;56.40;101000.31;4751258;30;20349;-47
2023/03/05 01:57:06;;;;;;;;;;;;;;;11.04;56.56;100992.28;4751176;30;19922;-49
2023/03/05 01:59:32;;;;;;;;;;;;;;;10.97;56.78;100996.81;4750840;30;19922;-51
2023/03/05 02:01:58;;;;;;;;;;;;;;;10.77;58.09;100999.47;4750920;30;19976;-52
2023/03/05 02:04:28;;;;;;;;;;;;;;;10.80;58.26;101002.56;4751266;30;19924;-49
2023/03/05 02:06:54;;;;;;;;;;;;;;;10.99;58.39;100997.44;4735217;30;20292;-50
2023/03/05 02:09:22;;;;;;;;;;;;;;;10.89;58.86;100991.69;4751126;30;19918;-50
2023/03/05 02:11:48;;;;;;;;;;;;;;;10.88;58.84;100992.69;4750580;30;19925;-49
2023/03/05 02:14:14;;;;;;;;;;;;;;;10.71;59.49;100987.72;4750984;30;20001;-47
2023/03/05 02:16:41;;;;;;;;;;;;;;;10.57;60.22;100978.84;4751360;30;20428;-49
2023/03/05 02:19:09;;;;;;;;;;;;;;;10.58;60.44;100996.56;4750985;30;19918;-49
2023/03/05 02:21:36;;;;;;;;;;;;;;;10.54;60.76;100981.09;4751220;30;19922;-49
2023/03/05 02:24:02;;;;;;;;;;;;;;;10.40;61.12;100987.44;4751434;30;20389;-49
2023/03/05 02:26:28;;;;;;;;;;;;;;;10.48;61.10;100997.97;4751112;30;19921;-49
2023/03/05 02:28:57;;;;;;;;;;;;;;;10.34;61.53;100996.28;4753397;30;20017;-47
2023/03/05 02:31:24;;;;;;;;;;;;;;;10.44;61.11;100996.75;4753943;30;19918;-49
2023/03/05 02:33:50;;;;;;;;;;;;;;;10.39;60.74;100991.16;4754357;30;19917;-51
2023/03/05 02:36:17;;;;;;;;;;;;;;;10.37;61.01;100993.19;4754096;30;19925;-48
2023/03/05 02:38:43;;;;;;;;;;;;;;;10.12;61.82;100993.69;4754260;30;19919;-49
2023/03/05 02:41:09;;;;;;;;;;;;;;;10.28;61.09;100993.38;4753977;30;19922;-51
2023/03/05 02:43:35;;;;;;;;;;;;;;;10.19;61.53;100993.72;4754002;30;20026;-51
2023/03/05 02:46:01;;;;;;;;;;;;;;;10.22;64.90;100996.81;4754287;30;19988;-52
2023/03/05 02:48:26;;;;;;;;;;;;;;;10.34;66.86;100999.78;4754360;30;20290;-49
2023/03/05 02:50:54;;;;;;;;;;;;;;;10.42;67.45;100996.09;4753850;30;19918;-51
2023/03/05 02:53:21;;;;;;;;;;;;;;;10.23;68.46;100995.81;4753730;30;19945;-51
2023/03/05 02:55:47;;;;;;;;;;;;;;;10.19;68.97;100994.53;4754115;30;19968;-49
2023/03/05 02:58:13;;;;;;;;;;;;;;;10.18;69.30;100997.41;4754252;30;20344;-52
2023/03/05 03:00:39;;;;;;;;;;;;;;;10.10;69.49;100995.72;4754134;30;19937;-52
2023/03/05 03:03:05;;;;;;;;;;;;;;;10.16;68.98;101000.31;4753743;30;19918;-51
2023/03/05 03:05:31;;;;;;;;;;;;;;;10.22;68.87;100993.34;4753715;30;19974;-50
2023/03/05 03:07:58;;;;;;;;;;;;;;;10.27;68.13;101005.13;4753816;30;19925;-50
2023/03/05 03:10:24;;;;;;;;;;;;;;;10.21;68.66;101005.03;4753664;30;19925;-49
2023/03/05 03:12:50;;;;;;;;;;;;;;;10.25;68.65;100996.44;4753320;30;20329;-49
2023/03/05 03:15:16;;;;;;;;;;;;;;;10.32;68.55;100999.13;4753500;30;19968;-49
2023/03/05 03:17:42;;;;;;;;;;;;;;;10.30;68.22;100999.34;4753512;30;19921;-48
2023/03/05 03:20:09;;;;;;;;;;;;;;;10.48;67.66;100977.38;4753436;30;19919;-50
2023/03/05 03:22:35;;;;;;;;;;;;;;;10.51;67.72;100982.34;4753604;30;19918;-51
2023/03/05 03:25:01;;;;;;;;;;;;;;;10.45;67.54;100985.00;4753425;30;19971;-51
2023/03/05 03:27:27;;;;;;;;;;;;;;;10.41;67.42;100975.72;4737606;30;19974;-48
2023/03/05 03:29:53;;;;;;;;;;;;;;;10.25;67.91;100987.59;4753161;30;19918;-48
2023/03/05 03:32:19;;;;;;;;;;;;;;;10.39;67.52;100977.78;4753384;30;19918;-50
2023/03/05 03:34:46;;;;;;;;;;;;;;;10.28;68.94;100981.84;4753132;30;19922;-48
2023/03/05 03:37:13;;;;;;;;;;;;;;;10.34;69.56;100985.59;4753501;30;19922;-49
2023/03/05 03:39:39;;;;;;;;;;;;;;;10.37;69.81;100990.50;4752535;30;19926;-50
2023/03/05 03:42:05;;;;;;;;;;;;;;;10.52;69.91;100999.22;4753093;30;20267;-50
2023/03/05 03:44:31;;;;;;;;;;;;;;;10.16;69.17;101005.66;4753522;30;20072;-51
2023/03/05 03:46:57;;;;;;;;;;;;;;;10.05;67.55;101009.72;4753137;30;20004;-49
2023/03/05 03:49:24;;;;;;;;;;;;;;;9.78;68.94;101003.41;4753241;30;19934;-47
2023/03/05 03:51:51;;;;;;;;;;;;;;;9.62;69.28;101009.06;4753046;30;19921;-49
2023/03/05 03:54:17;;;;;;;;;;;;;;;9.25;70.40;100997.66;4753060;30;19926;-49
2023/03/05 03:56:43;;;;;;;;;;;;;;;9.40;70.09;101010.13;4753285;30;19924;-51
2023/03/05 03:59:10;;;;;;;;;;;;;;;9.32;70.54;101011.06;4753093;30;19921;-50
2023/03/05 04:01:36;;;;;;;;;;;;;;;9.05;72.15;101012.72;4753286;30;20278;-51
2023/03/05 04:04:02;;;;;;;;;;;;;;;8.97;71.90;101018.16;4752982;30;19929;-48
2023/03/05 04:06:28;;;;;;;;;;;;;;;8.99;72.33;101014.31;4753267;30;19921;-52
2023/03/05 04:08:54;;;;;;;;;;;;;;;9.02;73.06;101007.75;4753258;30;19918;-50
2023/03/05 04:11:21;;;;;;;;;;;;;;;9.21;72.11;101012.41;4753082;30;20371;-48
2023/03/05 04:13:47;;;;;;;;;;;;;;;9.14;72.66;101013.41;4752702;30;19972;-49
2023/03/05 04:16:13;;;;;;;;;;;;;;;8.86;74.24;101018.69;4752738;30;19921;-48
2023/03/05 04:18:39;;;;;;;;;;;;;;;8.55;75.82;101011.81;4752682;30;19918;-50
2023/03/05 04:21:05;;;;;;;;;;;;;;;8.68;75.76;101016.44;4752837;30;19918;-47
2023/03/05 04:23:31;;;;;;;;;;;;;;;8.71;75.70;101008.88;4756836;30;19926;-47
2023/03/05 04:25:57;;;;;;;;;;;;;;;8.85;75.14;101006.34;4769601;30;19924;-49
2023/03/05 04:28:23;;;;;;;;;;;;;;;8.70;75.08;101007.22;4769503;30;20339;-50
2023/03/05 04:30:49;;;;;;;;;;;;;;;8.61;75.69;101013.72;4768294;30;19983;-51
2023/03/05 04:33:15;;;;;;;;;;;;;;;8.76;74.80;101007.50;4770330;30;19975;-50
2023/03/05 04:35:41;;;;;;;;;;;;;;;8.51;75.36;101002.53;4766583;30;19921;-47
2023/03/05 04:38:07;;;;;;;;;;;;;;;8.75;73.96;101005.84;4770054;30;20358;-47
2023/03/05 04:40:33;;;;;;;;;;;;;;;8.70;73.96;101009.06;4783296;30;19924;-49
2023/03/05 04:42:59;;;;;;;;;;;;;;;8.34;75.34;101003.72;4788091;30;19952;-51
2023/03/05 04:45:25;;;;;;;;;;;;;;;8.51;74.76;101009.69;4788042;30;19971;-51
2023/03/05 04:47:51;;;;;;;;;;;;;;;8.31;74.97;100999.56;4780763;30;19918;-49
2023/03/05 04:50:16;;;;;;;;;;;;;;;8.46;74.00;100994.25;4769546;30;19949;-47
2023/03/05 04:52:43;;;;;;;;;;;;;;;8.48;73.65;100994.06;4769118;30;20428;-47
2023/03/05 04:55:10;;;;;;;;;;;;;;;8.64;73.25;100993.81;4772259;30;19921;-47
2023/03/05 04:57:36;;;;;;;;;;;;;;;8.44;73.24;100994.44;4785586;30;19921;-49
2023/03/05 05:00:05;;;;;;;;;;;;;;;8.42;74.00;100987.63;4787056;30;20304;-46
2023/03/05 05:02:32;;;;;;;;;;;;;;;8.45;73.36;100996.09;4788002;30;19930;-49
2023/03/05 05:04:57;;;;;;;;;;;;;;;8.56;72.75;101001.97;4787559;30;20397;-51
2023/03/05 05:07:23;;;;;;;;;;;;;;;8.46;73.28;100992.41;4787666;30;19936;-51
2023/03/05 05:09:49;;;;;;;;;;;;;;;8.52;73.30;100998.84;4787308;30;20373;-50
2023/03/05 05:12:15;;;;;;;;;;;;;;;8.60;72.96;100993.38;4787221;30;20448;-48
2023/03/05 05:14:41;;;;;;;;;;;;;;;8.19;74.76;100998.41;4786762;29;19921;-48
2023/03/05 05:17:07;;;;;;;;;;;;;;;8.32;74.84;100990.56;4787530;30;19927;-50
2023/03/05 05:19:33;;;;;;;;;;;;;;;8.28;74.91;100980.47;4787189;30;20055;-49
2023/03/05 05:21:59;;;;;;;;;;;;;;;8.39;74.65;100978.19;4787041;30;20414;-50
2023/03/05 05:24:25;;;;;;;;;;;;;;;8.44;74.89;100978.44;4780002;30;20008;-51
2023/03/05 05:26:53;;;;;;;;;;;;;;;8.40;75.44;100968.34;4769331;30;19921;-51
2023/03/05 05:29:19;;;;;;;;;;;;;;;8.11;76.56;100969.22;4769386;30;19967;-49
2023/03/05 05:31:45;;;;;;;;;;;;;;;8.25;76.12;100968.34;4769740;30;20320;-51
2023/03/05 05:34:11;;;;;;;;;;;;;;;8.44;75.22;100966.94;4753002;30;19918;-50
2023/03/05 05:36:36;;;;;;;;;;;;;;;8.45;74.91;100972.09;4769219;30;19944;-49
2023/03/05 05:39:03;;;;;;;;;;;;;;;8.25;76.13;100972.84;4768884;30;20044;-47
2023/03/05 05:41:29;;;;;;;;;;;;;;;8.23;76.03;100958.88;4769206;30;19924;-50
2023/03/05 05:43:55;;;;;;;;;;;;;;;8.03;76.61;100958.63;4768972;30;20002;-50
2023/03/05 05:46:21;;;;;;;;;;;;;;;8.20;76.15;100958.22;4769281;30;19921;-49
2023/03/05 05:48:47;;;;;;;;;;;;;;;8.19;75.07;100951.25;4784332;30;19917;-51
2023/03/05 05:51:18;;;;;;;;;;;;;;;8.20;74.11;100952.88;4787073;30;19921;-50
2023/03/05 05:53:44;;;;;;;;;;;;;;;8.16;72.99;100956.97;4786536;30;19928;-50
2023/03/05 05:56:10;;;;;;;;;;;;;;;8.15;74.12;100963.28;4787010;30;19947;-50
2023/03/05 05:58:37;;;;;;;;;;;;;;;8.11;73.63;100958.53;4787213;30;19921;-51
2023/03/05 06:01:11;;;;;;;;;;;;;;;8.00;72.42;100937.69;4774870;30;19970;-49
2023/03/05 06:03:36;;;;;;;;;;;;;;;7.94;72.88;100939.25;4786448;29;20392;-50
2023/03/05 06:06:02;;;;;;;;;;;;;;;8.06;72.78;100924.44;4772286;30;19918;-49
2023/03/05 06:08:28;;;;;;;;;;;;;;;7.99;72.61;100928.84;4772526;30;19918;-50
2023/03/05 06:10:54;;;;;;;;;;;;;;;8.14;71.87;100921.66;4770933;30;19921;-50
2023/03/05 06:13:20;;;;;;;;;;;;;;;8.11;72.46;100926.53;4772536;30;19974;-50
2023/03/05 06:15:54;;;;;;;;;;;;;;;8.15;71.97;100936.63;4785777;30;20027;-50
2023/03/05 06:18:20;;;;;;;;;;;;;;;8.06;72.50;100937.78;4790687;30;20070;-48
2023/03/05 06:20:52;;;;;;;;;;;;;;;8.07;73.02;100934.09;4772996;30;20520;-47
2023/03/05 06:23:18;;;;;;;;;;;;;;;7.99;73.48;100925.34;4772300;30;20297;-47
2023/03/05 06:25:44;;;;;;;;;;;;;;;8.06;74.86;100935.09;4778389;30;20421;-48
2023/03/05 06:28:10;;;;;;;;;;;;;;;8.02;76.09;100920.50;4790216;30;19928;-49
2023/03/05 06:30:36;;;;;;;;;;;;;;;8.09;76.07;100916.06;4771635;30;19976;-50
2023/03/05 06:33:02;;;;;;;;;;;;;;;8.01;76.53;100910.84;4754237;30;19936;-49
2023/03/05 06:35:28;;;;;;;;;;;;;;;7.86;77.04;100912.69;4764882;30;19922;-48
2023/03/05 06:37:54;;;;;;;;;;;;;;;8.02;76.31;100912.50;4772118;30;19921;-50
2023/03/05 06:40:19;;;;;;;;;;;;;;;8.11;76.02;100903.38;4769827;30;19984;-50
2023/03/05 06:42:45;;;;;;;;;;;;;;;7.98;75.92;100903.22;4772055;30;20422;-48
2023/03/05 06:45:11;;;;;;;;;;;;;;;8.02;76.38;100899.16;4777803;30;19961;-49
2023/03/05 06:47:37;;;;;;;;;;;;;;;8.00;75.67;100895.88;4786769;30;20003;-48
2023/03/05 06:50:03;;;;;;;;;;;;;;;7.99;75.69;100901.38;4781505;30;20355;-52
2023/03/05 06:52:29;;;;;;;;;;;;;;;7.88;74.32;100897.34;4771954;30;20449;-51
2023/03/05 06:54:55;;;;;;;;;;;;;;;7.95;75.06;100884.94;4769993;30;19922;-50
2023/03/05 06:57:21;;;;;;;;;;;;;;;8.02;74.81;100888.50;4772035;30;19926;-50
2023/03/05 06:59:47;;;;;;;;;;;;;;;8.14;74.76;100889.66;4772774;30;19975;-51
2023/03/05 07:02:13;;;;;;;;;;;;;;;8.03;75.25;100892.00;4790111;30;20391;-51
2023/03/05 07:04:39;;;;;;;;;;;;;;;8.02;76.70;100877.84;4769309;30;20157;-49
2023/03/05 07:07:05;;;;;;;;;;;;;;;8.01;75.43;100862.88;4772209;30;20313;-49
2023/03/05 07:09:31;;;;;;;;;;;;;;;7.93;75.72;100871.78;4770088;30;19918;-49
2023/03/05 07:11:56;;;;;;;;;;;;;;;7.86;75.60;100862.06;4771287;30;20044;-52
2023/03/05 07:14:22;;;;;;;;;;;;;;;8.06;74.40;100870.31;4770774;30;19917;-48
2023/03/05 07:16:49;;;;;;;;;;;;;;;8.08;74.22;100861.09;4787813;29;19929;-51
2023/03/05 07:19:15;;;;;;;;;;;;;;;8.07;74.87;100854.09;4789379;30;19917;-49
2023/03/05 07:21:41;;;;;;;;;;;;;;;8.03;73.81;100852.81;4769627;30;20396;-50
2023/03/05 07:24:07;;;;;;;;;;;;;;;7.96;75.38;100865.28;4771565;30;19902;-47
2023/03/05 07:26:34;;;;;;;;;;;;;;;8.04;74.97;100853.66;4769238;30;19932;-49
2023/03/05 07:29:00;;;;;;;;;;;;;;;7.99;74.18;100862.22;4771741;30;19917;-49
2023/03/05 07:31:29;;;;;;;;;;;;;;;8.00;74.82;100853.22;4771013;30;20394;-49
2023/03/05 07:33:55;;;;;;;;;;;;;;;8.03;75.17;100855.50;4771240;30;19925;-49
2023/03/05 07:36:21;;;;;;;;;;;;;;;8.09;75.21;100841.41;4771445;30;19918;-48
2023/03/05 07:38:47;;;;;;;;;;;;;;;7.97;75.95;100836.78;4771265;30;19945;-49
2023/03/05 07:41:18;;;;;;;;;;;;;;;7.65;76.85;100834.34;4771192;30;19922;-51
2023/03/05 07:43:44;;;;;;;;;;;;;;;7.75;77.07;100827.91;4770892;30;20306;-50
2023/03/05 07:46:11;;;;;;;;;;;;;;;7.79;76.91;100827.34;4774316;30;19920;-50
2023/03/05 07:48:37;;;;;;;;;;;;;;;7.90;77.17;100812.72;4788683;30;19996;-48
2023/03/05 07:51:13;;;;;;;;;;;;;;;7.89;77.05;100816.41;4788878;30;19960;-49
2023/03/05 07:53:39;;;;;;;;;;;;;;;7.76;77.34;100810.91;4788463;29;19981;-51
2023/03/05 07:56:05;;;;;;;;;;;;;;;7.73;76.46;100798.00;4788755;30;19925;-50
2023/03/05 07:58:31;;;;;;;;;;;;;;;7.76;77.22;100800.25;4788658;30;20365;-48
2023/03/05 08:00:57;;;;;;;;;;;;;;;7.70;77.19;100787.69;4772194;30;19917;-47
2023/03/05 08:03:23;;;;;;;;;;;;;;;7.64;76.68;100795.41;4787949;30;20006;-51
2023/03/05 08:05:49;;;;;;;;;;;;;;;7.73;76.38;100792.66;4788689;30;19917;-51
2023/03/05 08:08:15;;;;;;;;;;;;;;;7.79;75.53;100791.91;4788507;30;19917;-51
2023/03/05 08:10:41;;;;;;;;;;;;;;;7.79;75.21;100783.91;4787814;29;19921;-50
2023/03/05 08:13:07;;;;;;;;;;;;;;;7.94;74.57;100764.19;4787903;30;19955;-47
2023/03/05 08:15:33;;;;;;;;;;;;;;;7.82;75.00;100768.34;4789154;30;20429;-48
2023/03/05 08:17:59;;;;;;;;;;;;;;;7.70;75.00;100772.53;4788249;30;20415;-48
2023/03/05 08:20:25;;;;;;;;;;;;;;;7.90;74.20;100762.09;4784657;30;19917;-47
2023/03/05 08:22:51;;;;;;;;;;;;;;;7.76;74.70;100763.78;4788200;30;20475;-51
2023/03/05 08:25:17;;;;;;;;;;;;;;;7.69;74.69;100760.22;4788328;30;20012;-51
2023/03/05 08:27:43;;;;;;;;;;;;;;;7.75;75.24;100751.47;4777538;29;19979;-49
2023/03/05 08:30:11;;;;;;;;;;;;;;;7.85;75.63;100746.66;4758366;30;19918;-50
2023/03/05 08:32:37;;;;;;;;;;;;;;;7.79;76.62;100751.94;4752386;30;20005;-50
2023/03/05 08:35:03;;;;;;;;;;;;;;;7.76;77.03;100741.63;4752401;30;20008;-52
2023/03/05 08:37:29;;;;;;;;;;;;;;;7.89;76.56;100723.97;4767511;30;19921;-45
2023/03/05 08:39:56;;;;;;;;;;;;;;;7.83;76.72;100732.72;4750783;30;19926;-52
2023/03/05 08:42:22;;;;;;;;;;;;;;;8.00;76.11;100740.44;4752315;30;19929;-49
2023/03/05 08:44:48;;;;;;;;;;;;;;;7.92;76.58;100728.06;4752017;30;19941;-46
2023/03/05 08:47:15;;;;;;;;;;;;;;;7.91;78.04;100702.44;4776496;24;20393;-49
2023/03/05 08:49:40;;;;;;;;;;;;;;;7.81;78.18;100673.44;4787650;30;19961;-49
2023/03/05 08:52:06;;;;;;;;;;;;;;;7.81;78.80;100699.25;4787455;30;19914;-50
2023/03/05 08:54:32;;;;;;;;;;;;;;;7.89;77.76;100704.47;4788024;30;20361;-48
2023/03/05 08:56:58;;;;;;;;;;;;;;;7.98;77.66;100719.31;4781892;30;19918;-49
2023/03/05 08:59:24;;;;;;;;;;;;;;;7.88;77.21;100726.78;4774340;29;19928;-48
2023/03/05 09:01:50;;;;;;;;;;;;;;;8.01;77.52;100736.75;4787721;30;20008;-50
2023/03/05 09:04:16;;;;;;;;;;;;;;;8.05;78.05;100738.00;4787497;30;20357;-49
2023/03/05 09:06:42;;;;;;;;;;;;;;;8.10;78.50;100747.06;4774643;30;19973;-49
2023/03/05 09:09:08;;;;;;;;;;;;;;;8.27;79.20;100765.47;4772479;30;19926;-46
2023/03/05 09:11:35;;;;;;;;;;;;;;;8.29;78.51;100792.78;4774869;30;19917;-49
2023/03/05 09:14:04;;;;;;;;;;;;;;;8.32;77.93;100814.53;4769662;30;19921;-49
2023/03/05 09:16:29;;;;;;;;;;;;;;;8.28;79.77;100817.81;4769562;30;19921;-47
2023/03/05 09:18:55;;;;;;;;;;;;;;;8.28;79.07;100829.31;4771405;29;19971;-46
2023/03/05 09:21:21;;;;;;;;;;;;;;;8.01;78.99;100878.03;4787280;30;19917;-47
2023/03/05 09:23:47;;;;;;;;;;;;;;;7.60;78.12;100873.22;4785045;30;19921;-45
2023/03/05 09:26:14;;;;;;;;;;;;;;;7.20;78.51;100870.03;4768034;30;20016;-48
2023/03/05 09:28:41;;;;;;;;;;;;;;;6.95;79.54;100885.44;4776779;30;19959;-49
2023/03/05 09:31:07;;;;;;;;;;;;;;;6.90;80.30;100890.47;4784152;30;19924;-45
2023/03/05 09:33:34;;;;;;;;;;;;;;;6.79;80.91;100909.53;4769432;30;20258;-48
2023/03/05 09:36:01;;;;;;;;;;;;;;;6.69;81.61;100901.78;4769186;30;19975;-45
2023/03/05 09:38:27;;;;;;;;;;;;;;;6.60;82.15;100910.84;4781338;30;19917;-46
2023/03/05 09:41:06;;;;;;;;;;;;;;;6.45;82.55;100900.16;4787275;30;20417;-47
2023/03/05 09:43:47;;;;;;;;;;;;;;;6.45;82.15;100900.16;4782137;30;20012;-49
2023/03/05 09:46:13;;;;;;;;;;;;;;;6.39;83.41;100905.38;4781267;29;20154;-49
2023/03/05 09:48:51;;;;;;;;;;;;;;;6.44;82.71;100898.50;4786848;30;20280;-46
2023/03/05 09:51:21;;;;;;;;;;;;;;;6.44;83.04;100911.81;4786937;30;19924;-48
2023/03/05 09:54:10;;;;;;;;;;;;;;;6.53;82.96;100888.63;4786650;30;19921;-48
2023/03/05 09:56:39;;;;;;;;;;;;;;;6.64;83.01;100871.41;4763141;30;19922;-47
2023/03/05 09:59:23;;;;;;;;;;;;;;;6.64;82.93;100872.25;4768934;30;20306;-47
2023/03/05 10:01:49;;;;;;;;;;;;;;;6.67;83.06;100858.59;4785972;30;19925;-47
2023/03/05 10:04:15;;;;;;;;;;;;;;;6.77;83.03;100842.38;4787128;30;19971;-50
2023/03/05 10:06:47;;;;;;;;;;;;;;;6.84;82.79;100846.78;4786219;30;19957;-50
2023/03/05 10:09:19;;;;;;;;;;;;;;;6.91;82.96;100852.22;4785378;30;19920;-47
2023/03/05 10:11:54;;;;;;;;;;;;;;;7.00;82.74;100871.59;4785520;30;19918;-47
2023/03/05 10:14:28;;;;;;;;;;;;;;;6.93;82.50;100882.13;4785255;30;19917;-49
2023/03/05 10:17:12;;;;;;;;;;;;;;;7.00;82.96;100876.91;4786810;30;20411;-48
2023/03/05 10:19:38;;;;;;;;;;;;;;;6.97;82.76;100877.28;4783576;30;19929;-50
2023/03/05 10:22:16;;;;;;;;;;;;;;;6.91;83.94;100878.81;4769010;30;19918;-50
2023/03/05 10:24:48;;;;;;;;;;;;;;;6.85;84.25;100884.88;4771250;30;19925;-47
2023/03/05 10:27:40;;;;;;;;;;;;;;;6.90;84.44;100881.66;4786775;30;19917;-50
2023/03/05 10:30:12;;;;;;;;;;;;;;;7.05;83.10;100870.03;4764226;30;20297;-49
2023/03/05 10:32:57;;;;;;;;;;;;;;;6.75;85.15;100878.97;4786626;30;19921;-48
2023/03/05 10:35:35;;;;;;;;;;;;;;;7.03;84.77;100884.53;4784832;30;20016;-50
2023/03/05 10:38:01;;;;;;;;;;;;;;;7.00;85.19;100872.41;4786634;30;19974;-48
2023/03/05 10:40:40;;;;;;;;;;;;;;;7.09;84.77;100865.97;4785138;30;19921;-50
2023/03/05 10:43:09;;;;;;;;;;;;;;;7.10;84.67;100861.50;4786417;30;19921;-49
2023/03/05 10:45:40;;;;;;;;;;;;;;;7.04;84.66;100854.22;4784469;30;19928;-49
2023/03/05 10:48:11;;;;;;;;;;;;;;;7.06;84.79;100861.03;4786339;30;19925;-50
2023/03/05 10:50:43;;;;;;;;;;;;;;;7.21;84.16;100866.34;4786898;29;19925;-47
2023/03/05 10:53:09;;;;;;;;;;;;;;;7.22;84.54;100875.16;4789721;30;19954;-49
2023/03/05 10:55:35;;;;;;;;;;;;;;;7.18;84.11;100872.06;4788334;30;19925;-50
2023/03/05 10:58:09;;;;;;;;;;;;;;;7.32;83.87;100859.75;4789708;30;20004;-48
2023/03/05 11:00:35;;;;;;;;;;;;;;;7.32;83.83;100854.41;4786108;30;19921;-47
2023/03/05 11:03:02;;;;;;;;;;;;;;;7.22;84.67;100849.41;4789685;30;19990;-47
2023/03/05 11:05:31;;;;;;;;;;;;;;;7.38;84.20;100843.88;4786416;30;20282;-49
2023/03/05 11:07:57;;;;;;;;;;;;;;;7.43;83.26;100845.97;4789871;30;19917;-49
2023/03/05 11:10:22;;;;;;;;;;;;;;;7.45;83.12;100840.47;4787822;30;19918;-49
2023/03/05 11:12:48;;;;;;;;;;;;;;;7.31;82.52;100839.47;4789123;30;20008;-47
2023/03/05 11:15:14;;;;;;;;;;;;;;;7.44;83.15;100820.16;4788140;30;19921;-48
2023/03/05 11:17:46;;;;;;;;;;;;;;;7.43;82.94;100824.66;4789520;30;19920;-48
2023/03/05 11:20:29;;;;;;;;;;;;;;;7.47;82.84;100825.13;4787114;30;20297;-50
2023/03/05 11:23:25;;;;;;;;;;;;;;;7.55;82.92;100844.50;4773290;30;19965;-46
2023/03/05 11:25:50;;;;;;;;;;;;;;;7.63;83.15;100847.06;4775899;30;20399;-50
2023/03/05 11:28:21;;;;;;;;;;;;;;;7.72;83.88;100850.44;4789172;30;19917;-47
2023/03/05 11:30:55;;;;;;;;;;;;;;;7.78;83.51;100848.88;4787376;30;20630;-50
2023/03/05 11:33:22;;;;;;;;;;;;;;;7.75;83.66;100847.41;4789268;30;20011;-50
2023/03/05 11:35:48;;;;;;;;;;;;;;;7.84;83.28;100846.28;4787855;30;20009;-49
2023/03/05 11:38:25;;;;;;;;;;;;;;;7.83;83.00;100851.81;4789031;30;19924;-51
2023/03/05 11:40:55;;;;;;;;;;;;;;;7.84;82.27;100851.59;4787643;30;19921;-50
2023/03/05 11:43:22;;;;;;;;;;;;;;;7.87;81.55;100859.22;4789144;30;19986;-47
2023/03/05 11:46:01;;;;;;;;;;;;;;;7.72;82.38;100861.09;4787504;30;19925;-49
2023/03/05 11:48:34;;;;;;;;;;;;;;;7.80;81.36;100860.97;4784541;30;19921;-50
2023/03/05 11:51:01;;;;;;;;;;;;;;;7.83;79.97;100862.47;4787193;30;19922;-47
2023/03/05 11:53:35;;;;;;;;;;;;;;;7.84;79.73;100861.44;4788902;30;20376;-50
2023/03/05 11:56:10;;;;;;;;;;;;;;;7.84;79.57;100848.94;4780763;30;19957;-47
2023/03/05 11:58:38;;;;;;;;;;;;;;;7.76;78.93;100862.38;4770637;30;20377;-48
2023/03/05 12:01:18;;;;;;;;;;;;;;;7.84;78.42;100861.44;4773645;30;19917;-48
2023/03/05 12:03:44;;;;;;;;;;;;;;;7.88;78.13;100854.69;4788710;30;20158;-50
2023/03/05 12:06:16;;;;;;;;;;;;;;;7.97;76.31;100847.44;4789230;29;19917;-48
2023/03/05 12:08:45;;;;;;;;;;;;;;;7.90;74.83;100858.03;4788439;30;19924;-50
2023/03/05 12:11:19;;;;;;;;;;;;;;;7.96;74.66;100862.59;4788585;30;19920;-51
2023/03/05 12:13:50;;;;;;;;;;;;;;;7.84;75.60;100870.25;4788712;30;20376;-48
2023/03/05 12:16:19;;;;;;;;;;;;;;;7.88;73.96;100881.34;4788409;30;20397;-50
2023/03/05 12:19:14;;;;;;;;;;;;;;;7.90;73.84;100874.00;4788020;30;19963;-49
2023/03/05 12:21:41;;;;;;;;;;;;;;;7.93;72.92;100879.78;4737517;30;19919;-47
2023/03/05 12:24:22;;;;;;;;;;;;;;;7.85;73.81;100871.09;4770604;30;19941;-49
2023/03/05 12:27:03;;;;;;;;;;;;;;;7.88;73.20;100884.03;4770364;30;19923;-46
2023/03/05 12:29:39;;;;;;;;;;;;;;;7.89;73.40;100891.03;4769970;30;19928;-50
2023/03/05 12:32:27;;;;;;;;;;;;;;;7.94;72.76;100894.78;4770681;30;19918;-50
2023/03/05 12:34:53;;;;;;;;;;;;;;;7.91;73.79;100896.97;4770081;30;20382;-50
2023/03/05 12:37:22;;;;;;;;;;;;;;;8.06;72.61;100905.78;4770387;30;19956;-49
2023/03/05 12:40:06;;;;;;;;;;;;;;;8.18;72.85;100914.09;4769738;30;19925;-49
2023/03/05 12:42:31;;;;;;;;;;;;;;;8.14;73.51;100928.81;4770240;30;19918;-50
2023/03/05 12:45:15;;;;;;;;;;;;;;;8.10;74.31;100925.69;4770034;30;19925;-50
2023/03/05 12:47:41;;;;;;;;;;;;;;;8.08;75.02;100938.41;4769928;30;19922;-48